createdAt,value
2023-04-29T00:00:32.670Z,12.90
2023-04-29T00:01:32.642Z,12.40
2023-04-29T00:02:32.699Z,11.60
2023-04-29T00:03:32.906Z,11.40
2023-04-29T00:04:32.933Z,11.20
2023-04-29T00:05:32.780Z,10.90
2023-04-29T00:06:32.508Z,11.40
2023-04-29T00:07:32.500Z,10.90
2023-04-29T00:08:32.458Z,10.50
2023-04-29T00:09:32.437Z,10.70
2023-04-29T00:10:32.404Z,11.50
2023-04-29T00:11:32.382Z,11.40
2023-04-29T00:12:32.373Z,10.80
2023-04-29T00:13:32.330Z,11.10
2023-04-29T00:14:32.305Z,11.50
2023-04-29T00:15:32.276Z,11.40
2023-04-29T00:16:32.324Z,11.40
2023-04-29T00:17:32.252Z,12.20
2023-04-29T00:18:32.202Z,11.70
2023-04-29T00:19:32.179Z,12.00
2023-04-29T00:20:32.149Z,11.70
2023-04-29T00:21:32.123Z,12.00
2023-04-29T00:22:32.099Z,12.00
2023-04-29T00:23:32.070Z,12.30
2023-04-29T00:24:32.044Z,12.70
2023-04-29T00:25:32.020Z,11.60
2023-04-29T00:26:31.993Z,11.30
2023-04-29T00:27:31.970Z,11.60
2023-04-29T00:28:31.963Z,10.80
2023-04-29T00:29:31.917Z,10.00
2023-04-29T00:30:31.892Z,10.30
2023-04-29T00:31:31.947Z,9.20
2023-04-29T00:32:31.906Z,8.80
2023-04-29T00:33:31.816Z,9.20
2023-04-29T00:34:31.795Z,9.40
2023-04-29T00:35:31.772Z,9.50
2023-04-29T00:36:31.732Z,9.50
2023-04-29T00:37:31.716Z,9.10
2023-04-29T00:38:31.683Z,9.80
2023-04-29T00:39:31.658Z,9.20
2023-04-29T00:40:31.645Z,9.40
2023-04-29T00:41:31.626Z,8.60
2023-04-29T00:42:31.587Z,9.10
2023-04-29T00:43:31.556Z,9.00
2023-04-29T00:44:31.570Z,8.50
2023-04-29T00:45:31.515Z,8.20
2023-04-29T00:46:31.501Z,8.10
2023-04-29T00:47:31.465Z,8.10
2023-04-29T00:48:31.425Z,7.60
2023-04-29T00:49:31.398Z,7.80
2023-04-29T00:50:31.372Z,6.80
2023-04-29T00:51:31.349Z,6.70
2023-04-29T00:52:31.323Z,6.10
2023-04-29T00:53:31.298Z,6.80
2023-04-29T00:54:31.272Z,6.70
2023-04-29T00:55:31.257Z,6.60
2023-04-29T00:56:31.223Z,6.40
2023-04-29T00:57:31.196Z,6.80
2023-04-29T00:58:31.175Z,6.70
2023-04-29T00:59:31.153Z,6.10
2023-04-29T01:00:31.175Z,6.10
2023-04-29T01:01:31.128Z,6.30
2023-04-29T01:02:31.103Z,5.90
2023-04-29T01:03:31.190Z,6.10
2023-04-29T01:04:31.085Z,6.10
2023-04-29T01:05:30.990Z,5.80
2023-04-29T01:06:30.963Z,5.80
2023-04-29T01:07:30.938Z,6.30
2023-04-29T01:08:30.913Z,5.50
2023-04-29T01:09:30.891Z,5.30
2023-04-29T01:10:30.867Z,5.20
2023-04-29T01:11:30.839Z,5.20
2023-04-29T01:12:30.812Z,5.30
2023-04-29T01:13:30.786Z,4.90
2023-04-29T01:14:30.818Z,5.50
2023-04-29T01:15:30.734Z,5.30
2023-04-29T01:16:30.829Z,5.90
2023-04-29T01:17:30.693Z,5.70
2023-04-29T01:18:30.661Z,4.80
2023-04-29T01:19:30.632Z,4.80
2023-04-29T01:20:30.608Z,4.80
2023-04-29T01:21:30.582Z,4.60
2023-04-29T01:22:30.561Z,4.70
2023-04-29T01:23:30.540Z,4.40
2023-04-29T01:24:30.502Z,4.30
2023-04-29T01:25:30.479Z,4.10
2023-04-29T01:26:30.450Z,3.70
2023-04-29T01:27:30.426Z,3.90
2023-04-29T01:28:30.409Z,4.30
2023-04-29T01:29:30.379Z,3.90
2023-04-29T01:30:30.350Z,4.30
2023-04-29T01:31:30.342Z,4.70
2023-04-29T01:32:30.653Z,4.60
2023-04-29T01:33:30.275Z,5.00
2023-04-29T01:34:30.248Z,5.00
2023-04-29T01:35:30.223Z,4.50
2023-04-29T01:36:30.200Z,4.90
2023-04-29T01:37:30.173Z,3.70
2023-04-29T01:38:30.145Z,4.20
2023-04-29T01:39:30.119Z,4.40
2023-04-29T01:40:30.095Z,3.80
2023-04-29T01:41:30.070Z,4.20
2023-04-29T01:42:30.056Z,3.90
2023-04-29T01:43:30.039Z,3.50
2023-04-29T01:44:30.018Z,4.10
2023-04-29T01:45:29.980Z,3.90
2023-04-29T01:46:30.030Z,3.90
2023-04-29T01:47:29.946Z,4.20
2023-04-29T01:48:29.913Z,4.20
2023-04-29T01:49:29.896Z,4.00
2023-04-29T01:50:29.840Z,3.70
2023-04-29T01:51:29.816Z,3.60
2023-04-29T01:52:29.785Z,3.20
2023-04-29T01:53:29.764Z,3.10
2023-04-29T01:54:29.748Z,2.80
2023-04-29T01:55:29.714Z,2.90
2023-04-29T01:56:29.688Z,2.80
2023-04-29T01:57:29.663Z,2.90
2023-04-29T01:58:29.634Z,3.00
2023-04-29T01:59:31.450Z,3.00
2023-04-29T02:00:29.602Z,3.60
2023-04-29T02:01:29.564Z,3.30
2023-04-29T02:02:29.614Z,3.20
2023-04-29T02:03:29.587Z,3.60
2023-04-29T02:04:29.526Z,3.30
2023-04-29T02:05:29.455Z,3.40
2023-04-29T02:06:29.431Z,3.50
2023-04-29T02:07:29.407Z,3.50
2023-04-29T02:08:29.382Z,3.60
2023-04-29T02:09:29.355Z,3.70
2023-04-29T02:10:29.339Z,3.40
2023-04-29T02:11:29.305Z,3.50
2023-04-29T02:12:29.281Z,3.10
2023-04-29T02:13:29.259Z,3.40
2023-04-29T02:14:29.228Z,3.10
2023-04-29T02:15:29.213Z,3.30
2023-04-29T02:16:29.356Z,3.30
2023-04-29T02:17:29.172Z,3.20
2023-04-29T02:18:29.132Z,3.50
2023-04-29T02:19:29.102Z,3.50
2023-04-29T02:20:29.093Z,4.00
2023-04-29T02:21:29.065Z,4.10
2023-04-29T02:22:29.027Z,4.60
2023-04-29T02:23:29.001Z,4.70
2023-04-29T02:24:28.985Z,4.20
2023-04-29T02:25:28.953Z,4.80
2023-04-29T02:26:28.934Z,5.30
2023-04-29T02:27:28.899Z,5.30
2023-04-29T02:28:28.874Z,5.60
2023-04-29T02:29:28.848Z,5.50
2023-04-29T02:30:28.823Z,5.40
2023-04-29T02:31:28.833Z,5.80
2023-04-29T02:32:28.794Z,6.00
2023-04-29T02:33:28.747Z,5.70
2023-04-29T02:34:28.724Z,5.70
2023-04-29T02:35:28.695Z,5.60
2023-04-29T02:36:28.690Z,5.90
2023-04-29T02:37:28.646Z,5.60
2023-04-29T02:38:28.622Z,5.60
2023-04-29T02:39:28.594Z,4.70
2023-04-29T02:40:28.569Z,4.30
2023-04-29T02:41:28.548Z,4.40
2023-04-29T02:42:28.524Z,4.20
2023-04-29T02:43:28.491Z,4.40
2023-04-29T02:44:28.471Z,3.30
2023-04-29T02:45:28.441Z,3.50
2023-04-29T02:46:28.638Z,3.00
2023-04-29T02:47:28.419Z,3.10
2023-04-29T02:48:28.367Z,2.90
2023-04-29T02:49:28.339Z,2.90
2023-04-29T02:50:28.313Z,3.10
2023-04-29T02:51:28.289Z,2.90
2023-04-29T02:52:28.284Z,3.10
2023-04-29T02:53:28.237Z,3.50
2023-04-29T02:54:28.212Z,3.10
2023-04-29T02:55:28.195Z,3.70
2023-04-29T02:56:28.161Z,3.60
2023-04-29T02:57:28.134Z,4.00
2023-04-29T02:58:28.114Z,3.70
2023-04-29T02:59:28.080Z,4.00
2023-04-29T03:00:28.068Z,4.40
2023-04-29T03:01:28.084Z,3.60
2023-04-29T03:02:28.130Z,3.80
2023-04-29T03:03:28.070Z,4.00
2023-04-29T03:04:28.063Z,3.80
2023-04-29T03:05:27.930Z,4.20
2023-04-29T03:06:27.924Z,4.60
2023-04-29T03:07:27.889Z,4.40
2023-04-29T03:08:27.870Z,4.20
2023-04-29T03:09:27.824Z,4.80
2023-04-29T03:10:27.805Z,4.60
2023-04-29T03:11:27.774Z,4.40
2023-04-29T03:12:27.797Z,4.50
2023-04-29T03:13:27.740Z,4.70
2023-04-29T03:14:27.706Z,4.60
2023-04-29T03:15:27.676Z,5.10
2023-04-29T03:16:27.703Z,5.40
2023-04-29T03:17:27.656Z,5.50
2023-04-29T03:18:27.596Z,5.40
2023-04-29T03:19:27.576Z,5.50
2023-04-29T03:20:27.547Z,5.70
2023-04-29T03:21:27.518Z,5.90
2023-04-29T03:22:27.506Z,6.00
2023-04-29T03:23:27.462Z,6.30
2023-04-29T03:24:27.459Z,6.00
2023-04-29T03:25:27.447Z,6.30
2023-04-29T03:26:27.384Z,6.50
2023-04-29T03:27:27.357Z,6.70
2023-04-29T03:28:27.354Z,6.40
2023-04-29T03:29:27.318Z,6.30
2023-04-29T03:30:27.297Z,6.00
2023-04-29T03:31:27.353Z,5.90
2023-04-29T03:32:27.283Z,5.90
2023-04-29T03:33:27.208Z,5.20
2023-04-29T03:34:27.184Z,5.50
2023-04-29T03:35:27.150Z,5.40
2023-04-29T03:36:27.126Z,5.80
2023-04-29T03:37:27.097Z,5.50
2023-04-29T03:38:27.073Z,5.00
2023-04-29T03:39:27.046Z,5.60
2023-04-29T03:40:27.040Z,4.40
2023-04-29T03:41:26.996Z,4.30
2023-04-29T03:42:26.972Z,4.00
2023-04-29T03:43:26.943Z,3.90
2023-04-29T03:44:26.924Z,3.50
2023-04-29T03:45:26.897Z,3.60
2023-04-29T03:46:26.898Z,3.60
2023-04-29T03:47:26.860Z,3.20
2023-04-29T03:48:26.864Z,3.80
2023-04-29T03:49:26.787Z,3.70
2023-04-29T03:50:26.829Z,3.70
2023-04-29T03:51:26.741Z,3.70
2023-04-29T03:52:26.783Z,3.90
2023-04-29T03:53:26.701Z,4.10
2023-04-29T03:54:26.661Z,3.80
2023-04-29T03:55:26.632Z,4.00
2023-04-29T03:56:26.626Z,4.10
2023-04-29T03:57:26.588Z,4.40
2023-04-29T03:58:26.558Z,4.30
2023-04-29T03:59:26.529Z,4.40
2023-04-29T04:00:26.627Z,4.10
2023-04-29T04:01:26.487Z,4.00
2023-04-29T04:02:26.668Z,4.20
2023-04-29T04:03:26.603Z,4.60
2023-04-29T04:04:26.665Z,4.80
2023-04-29T04:05:26.379Z,5.00
2023-04-29T04:06:26.354Z,4.90
2023-04-29T04:07:26.340Z,5.00
2023-04-29T04:08:26.298Z,5.40
2023-04-29T04:09:26.272Z,4.90
2023-04-29T04:10:26.251Z,4.90
2023-04-29T04:11:26.219Z,5.50
2023-04-29T04:12:26.216Z,5.50
2023-04-29T04:13:26.170Z,5.50
2023-04-29T04:14:26.145Z,5.40
2023-04-29T04:15:26.113Z,5.40
2023-04-29T04:16:26.122Z,5.80
2023-04-29T04:17:26.066Z,5.10
2023-04-29T04:18:26.038Z,5.40
2023-04-29T04:19:26.012Z,5.70
2023-04-29T04:20:25.989Z,5.40
2023-04-29T04:21:25.962Z,5.40
2023-04-29T04:22:25.937Z,4.90
2023-04-29T04:23:25.909Z,5.40
2023-04-29T04:24:25.887Z,5.40
2023-04-29T04:25:25.862Z,5.40
2023-04-29T04:26:25.836Z,5.20
2023-04-29T04:27:25.804Z,5.50
2023-04-29T04:28:25.804Z,5.50
2023-04-29T04:29:25.757Z,5.10
2023-04-29T04:30:25.730Z,4.70
2023-04-29T04:31:25.713Z,4.80
2023-04-29T04:32:25.715Z,4.60
2023-04-29T04:33:25.654Z,4.40
2023-04-29T04:34:25.630Z,4.30
2023-04-29T04:35:25.600Z,4.80
2023-04-29T04:36:25.578Z,4.20
2023-04-29T04:37:25.553Z,4.40
2023-04-29T04:38:25.536Z,4.30
2023-04-29T04:39:25.503Z,4.30
2023-04-29T04:40:25.476Z,4.20
2023-04-29T04:41:25.451Z,4.40
2023-04-29T04:42:25.428Z,4.20
2023-04-29T04:43:25.394Z,4.30
2023-04-29T04:44:25.404Z,4.00
2023-04-29T04:45:25.397Z,3.80
2023-04-29T04:46:25.325Z,4.00
2023-04-29T04:47:25.332Z,3.90
2023-04-29T04:48:25.277Z,3.50
2023-04-29T04:49:25.244Z,3.80
2023-04-29T04:50:25.235Z,3.90
2023-04-29T04:51:25.191Z,3.50
2023-04-29T04:52:25.173Z,3.80
2023-04-29T04:53:25.140Z,3.80
2023-04-29T04:54:25.117Z,3.50
2023-04-29T04:55:25.089Z,4.20
2023-04-29T04:56:25.060Z,3.90
2023-04-29T04:57:25.036Z,3.70
2023-04-29T04:58:25.014Z,4.00
2023-04-29T04:59:24.985Z,3.90
2023-04-29T05:00:24.982Z,3.70
2023-04-29T05:01:24.972Z,4.00
2023-04-29T05:02:25.104Z,4.10
2023-04-29T05:03:25.118Z,3.70
2023-04-29T05:04:25.277Z,4.10
2023-04-29T05:05:24.833Z,4.10
2023-04-29T05:06:24.805Z,4.10
2023-04-29T05:07:24.781Z,3.70
2023-04-29T05:08:24.754Z,4.10
2023-04-29T05:09:24.734Z,3.70
2023-04-29T05:10:24.703Z,4.00
2023-04-29T05:11:24.678Z,4.40
2023-04-29T05:12:24.647Z,4.20
2023-04-29T05:13:24.623Z,4.00
2023-04-29T05:14:24.597Z,4.10
2023-04-29T05:15:24.570Z,4.20
2023-04-29T05:16:24.618Z,4.20
2023-04-29T05:17:24.560Z,4.20
2023-04-29T05:18:24.506Z,4.60
2023-04-29T05:19:24.469Z,4.40
2023-04-29T05:20:24.443Z,4.70
2023-04-29T05:21:24.414Z,4.80
2023-04-29T05:22:24.424Z,4.60
2023-04-29T05:23:24.364Z,4.70
2023-04-29T05:24:24.339Z,4.60
2023-04-29T05:25:24.311Z,4.60
2023-04-29T05:26:24.287Z,4.30
2023-04-29T05:27:24.260Z,4.80
2023-04-29T05:28:25.245Z,4.50
2023-04-29T05:29:24.209Z,4.70
2023-04-29T05:30:24.191Z,4.30
2023-04-29T05:31:24.275Z,4.30
2023-04-29T05:32:24.202Z,4.00
2023-04-29T05:33:24.120Z,4.40
2023-04-29T05:34:24.081Z,4.10
2023-04-29T05:35:24.056Z,4.20
2023-04-29T05:36:24.043Z,4.00
2023-04-29T05:37:24.006Z,4.00
2023-04-29T05:38:23.980Z,3.30
2023-04-29T05:39:23.955Z,3.10
2023-04-29T05:40:23.930Z,3.20
2023-04-29T05:41:23.898Z,3.10
2023-04-29T05:42:23.870Z,3.00
2023-04-29T05:43:23.860Z,3.40
2023-04-29T05:44:23.823Z,3.30
2023-04-29T05:45:23.799Z,3.00
2023-04-29T05:46:23.793Z,3.10
2023-04-29T05:47:23.792Z,3.00
2023-04-29T05:48:23.760Z,3.40
2023-04-29T05:49:23.698Z,3.50
2023-04-29T05:50:23.668Z,3.40
2023-04-29T05:51:23.640Z,3.10
2023-04-29T05:52:23.624Z,3.30
2023-04-29T05:53:23.592Z,3.10
2023-04-29T05:54:23.580Z,3.00
2023-04-29T05:55:23.539Z,3.30
2023-04-29T05:56:23.520Z,3.10
2023-04-29T05:57:23.485Z,3.00
2023-04-29T05:58:23.467Z,2.80
2023-04-29T05:59:23.437Z,3.30
2023-04-29T06:00:23.424Z,3.20
2023-04-29T06:01:23.420Z,3.40
2023-04-29T06:02:23.421Z,3.60
2023-04-29T06:03:23.530Z,3.70
2023-04-29T06:04:23.691Z,3.90
2023-04-29T06:05:23.585Z,3.60
2023-04-29T06:06:23.364Z,3.70
2023-04-29T06:07:23.232Z,3.90
2023-04-29T06:08:23.208Z,3.90
2023-04-29T06:09:27.504Z,3.70
2023-04-29T06:10:23.154Z,3.40
2023-04-29T06:11:23.129Z,3.50
2023-04-29T06:12:23.106Z,3.50
2023-04-29T06:13:23.081Z,3.40
2023-04-29T06:14:23.055Z,3.30
2023-04-29T06:15:23.033Z,3.10
2023-04-29T06:16:23.070Z,3.10
2023-04-29T06:17:23.002Z,3.10
2023-04-29T06:18:22.972Z,3.20
2023-04-29T06:19:22.930Z,2.80
2023-04-29T06:20:22.923Z,3.10
2023-04-29T06:21:22.882Z,2.80
2023-04-29T06:22:22.876Z,2.40
2023-04-29T06:23:22.825Z,2.80
2023-04-29T06:24:22.806Z,2.60
2023-04-29T06:25:22.789Z,2.60
2023-04-29T06:26:22.757Z,2.50
2023-04-29T06:27:22.766Z,2.40
2023-04-29T06:28:22.709Z,2.70
2023-04-29T06:29:22.686Z,2.60
2023-04-29T06:30:22.668Z,2.30
2023-04-29T06:31:23.244Z,2.50
2023-04-29T06:32:22.621Z,2.60
2023-04-29T06:33:22.580Z,2.40
2023-04-29T06:34:22.559Z,2.30
2023-04-29T06:35:22.536Z,2.70
2023-04-29T06:36:22.531Z,2.50
2023-04-29T06:37:22.484Z,2.30
2023-04-29T06:38:22.462Z,2.30
2023-04-29T06:39:22.435Z,2.40
2023-04-29T06:40:22.417Z,2.30
2023-04-29T06:41:22.390Z,2.20
2023-04-29T06:42:22.367Z,2.00
2023-04-29T06:43:22.348Z,2.40
2023-04-29T06:44:22.316Z,2.50
2023-04-29T06:45:22.296Z,2.50
2023-04-29T06:46:22.274Z,2.20
2023-04-29T06:47:22.236Z,2.40
2023-04-29T06:48:22.221Z,2.20
2023-04-29T06:49:22.190Z,2.20
2023-04-29T06:50:22.172Z,2.50
2023-04-29T06:51:22.148Z,2.20
2023-04-29T06:52:22.139Z,2.00
2023-04-29T06:53:22.102Z,2.20
2023-04-29T06:54:22.085Z,2.20
2023-04-29T06:55:22.052Z,2.10
2023-04-29T06:56:22.027Z,1.80
2023-04-29T06:57:22.001Z,2.20
2023-04-29T06:58:21.978Z,2.10
2023-04-29T06:59:21.952Z,2.20
2023-04-29T07:00:21.928Z,2.40
2023-04-29T07:01:21.925Z,2.20
2023-04-29T07:02:21.935Z,2.60
2023-04-29T07:03:22.036Z,2.40
2023-04-29T07:04:21.862Z,2.40
2023-04-29T07:05:21.818Z,2.30
2023-04-29T07:06:21.784Z,2.30
2023-04-29T07:07:21.764Z,2.40
2023-04-29T07:08:21.754Z,2.60
2023-04-29T07:09:21.715Z,2.40
2023-04-29T07:10:21.689Z,2.40
2023-04-29T07:11:21.667Z,2.40
2023-04-29T07:12:21.642Z,2.40
2023-04-29T07:13:21.616Z,2.40
2023-04-29T07:14:21.595Z,2.50
2023-04-29T07:15:21.572Z,2.60
2023-04-29T07:16:21.578Z,2.70
2023-04-29T07:17:21.578Z,2.60
2023-04-29T07:18:21.498Z,2.50
2023-04-29T07:19:21.477Z,2.40
2023-04-29T07:20:22.574Z,2.20
2023-04-29T07:21:21.428Z,2.40
2023-04-29T07:22:21.404Z,2.20
2023-04-29T07:23:21.378Z,2.20
2023-04-29T07:24:21.372Z,2.20
2023-04-29T07:25:21.332Z,2.30
2023-04-29T07:26:21.305Z,2.10
2023-04-29T07:27:21.291Z,2.10
2023-04-29T07:28:21.265Z,2.40
2023-04-29T07:29:21.233Z,2.50
2023-04-29T07:30:21.209Z,2.10
2023-04-29T07:31:21.255Z,2.20
2023-04-29T07:32:21.180Z,2.50
2023-04-29T07:33:21.143Z,2.30
2023-04-29T07:34:21.125Z,2.20
2023-04-29T07:35:21.088Z,1.90
2023-04-29T07:36:21.069Z,2.40
2023-04-29T07:37:21.044Z,2.50
2023-04-29T07:38:21.018Z,2.20
2023-04-29T07:39:20.991Z,2.00
2023-04-29T07:40:20.985Z,1.90
2023-04-29T07:41:20.947Z,1.90
2023-04-29T07:42:20.924Z,1.80
2023-04-29T07:43:20.897Z,1.60
2023-04-29T07:44:20.876Z,1.60
2023-04-29T07:45:20.850Z,2.00
2023-04-29T07:46:20.857Z,1.70
2023-04-29T07:47:20.835Z,1.70
2023-04-29T07:48:20.781Z,1.70
2023-04-29T07:49:20.754Z,1.90
2023-04-29T07:50:20.730Z,1.80
2023-04-29T07:51:20.708Z,1.80
2023-04-29T07:52:20.680Z,2.00
2023-04-29T07:53:20.667Z,1.70
2023-04-29T07:54:20.636Z,2.00
2023-04-29T07:55:20.615Z,2.00
2023-04-29T07:56:20.613Z,2.40
2023-04-29T07:57:20.566Z,2.10
2023-04-29T07:58:20.543Z,2.20
2023-04-29T07:59:20.519Z,2.30
2023-04-29T08:00:20.494Z,2.10
2023-04-29T08:01:20.480Z,2.20
2023-04-29T08:02:20.549Z,1.90
2023-04-29T08:03:20.575Z,2.10
2023-04-29T08:04:20.697Z,1.80
2023-04-29T08:05:20.870Z,1.80
2023-04-29T08:06:20.400Z,1.90
2023-04-29T08:07:20.340Z,1.90
2023-04-29T08:08:20.323Z,2.20
2023-04-29T08:09:20.292Z,2.00
2023-04-29T08:10:20.274Z,2.00
2023-04-29T08:11:20.241Z,2.10
2023-04-29T08:12:20.237Z,2.40
2023-04-29T08:13:20.206Z,2.20
2023-04-29T08:14:20.193Z,1.90
2023-04-29T08:15:20.171Z,2.40
2023-04-29T08:16:20.151Z,1.80
2023-04-29T08:17:20.103Z,1.80
2023-04-29T08:18:20.075Z,1.60
2023-04-29T08:19:20.056Z,1.80
2023-04-29T08:20:20.034Z,2.10
2023-04-29T08:21:20.012Z,1.70
2023-04-29T08:22:19.988Z,1.70
2023-04-29T08:23:19.964Z,1.90
2023-04-29T08:24:19.943Z,2.10
2023-04-29T08:25:19.920Z,1.80
2023-04-29T08:26:19.979Z,1.70
2023-04-29T08:27:19.910Z,1.90
2023-04-29T08:28:19.872Z,1.90
2023-04-29T08:29:19.827Z,2.20
2023-04-29T08:30:19.825Z,1.80
2023-04-29T08:31:19.848Z,1.90
2023-04-29T08:32:19.770Z,1.60
2023-04-29T08:33:19.733Z,1.90
2023-04-29T08:34:19.709Z,1.70
2023-04-29T08:35:19.688Z,1.90
2023-04-29T08:36:19.667Z,1.80
2023-04-29T08:37:19.643Z,1.80
2023-04-29T08:38:19.614Z,1.60
2023-04-29T08:39:19.592Z,1.90
2023-04-29T08:40:19.570Z,2.20
2023-04-29T08:41:19.544Z,1.90
2023-04-29T08:42:19.593Z,1.90
2023-04-29T08:43:19.503Z,1.80
2023-04-29T08:44:19.493Z,1.70
2023-04-29T08:45:19.469Z,1.80
2023-04-29T08:46:19.457Z,1.90
2023-04-29T08:47:19.485Z,1.60
2023-04-29T08:48:19.531Z,1.90
2023-04-29T08:49:19.360Z,1.70
2023-04-29T08:50:19.329Z,1.60
2023-04-29T08:51:19.307Z,1.60
2023-04-29T08:52:19.283Z,2.00
2023-04-29T08:53:19.260Z,1.70
2023-04-29T08:54:19.243Z,1.90
2023-04-29T08:55:19.213Z,1.90
2023-04-29T08:56:19.194Z,1.80
2023-04-29T08:57:19.163Z,1.70
2023-04-29T08:58:19.144Z,1.90
2023-04-29T08:59:19.119Z,1.80
2023-04-29T09:00:19.112Z,1.60
2023-04-29T09:01:19.106Z,1.50
2023-04-29T09:02:19.153Z,1.70
2023-04-29T09:03:21.587Z,1.70
2023-04-29T09:04:19.071Z,1.70
2023-04-29T09:05:18.986Z,1.80
2023-04-29T09:06:18.954Z,1.80
2023-04-29T09:07:18.929Z,2.00
2023-04-29T09:08:18.905Z,1.70
2023-04-29T09:09:20.838Z,1.90
2023-04-29T09:10:18.857Z,1.80
2023-04-29T09:11:18.842Z,1.90
2023-04-29T09:12:18.810Z,1.90
2023-04-29T09:13:18.791Z,2.10
2023-04-29T09:14:18.765Z,1.80
2023-04-29T09:15:18.752Z,1.90
2023-04-29T09:16:18.806Z,1.70
2023-04-29T09:17:18.763Z,1.90
2023-04-29T09:18:18.672Z,1.90
2023-04-29T09:19:18.651Z,1.80
2023-04-29T09:20:18.627Z,1.90
2023-04-29T09:21:21.136Z,1.70
2023-04-29T09:22:18.587Z,1.70
2023-04-29T09:23:18.567Z,1.90
2023-04-29T09:24:18.538Z,1.90
2023-04-29T09:25:18.518Z,1.90
2023-04-29T09:26:18.500Z,1.90
2023-04-29T09:27:18.468Z,1.80
2023-04-29T09:28:18.449Z,1.90
2023-04-29T09:29:18.491Z,1.80
2023-04-29T09:30:18.456Z,1.90
2023-04-29T09:31:18.403Z,1.90
2023-04-29T09:32:18.449Z,1.70
2023-04-29T09:33:18.335Z,1.80
2023-04-29T09:34:18.312Z,2.50
2023-04-29T09:35:18.287Z,1.80
2023-04-29T09:36:18.265Z,1.80
2023-04-29T09:37:18.243Z,1.90
2023-04-29T09:38:18.223Z,1.80
2023-04-29T09:39:18.218Z,1.70
2023-04-29T09:40:18.195Z,1.70
2023-04-29T09:41:18.166Z,1.80
2023-04-29T09:42:18.129Z,1.90
2023-04-29T09:43:18.108Z,1.80
2023-04-29T09:44:18.093Z,1.60
2023-04-29T09:45:18.060Z,1.90
2023-04-29T09:46:18.054Z,1.80
2023-04-29T09:47:18.026Z,1.90
2023-04-29T09:48:18.068Z,1.80
2023-04-29T09:49:17.974Z,1.80
2023-04-29T09:50:18.092Z,1.80
2023-04-29T09:51:17.939Z,1.70
2023-04-29T09:52:17.907Z,1.80
2023-04-29T09:53:17.886Z,1.70
2023-04-29T09:54:17.860Z,1.70
2023-04-29T09:55:17.838Z,2.00
2023-04-29T09:56:17.814Z,1.70
2023-04-29T09:57:17.801Z,1.50
2023-04-29T09:58:17.768Z,1.70
2023-04-29T09:59:17.746Z,1.70
2023-04-29T10:00:17.875Z,1.70
2023-04-29T10:01:17.762Z,1.70
2023-04-29T10:02:17.722Z,1.60
2023-04-29T10:03:17.802Z,1.70
2023-04-29T10:04:17.695Z,1.60
2023-04-29T10:05:17.941Z,1.60
2023-04-29T10:06:17.591Z,1.60
2023-04-29T10:07:17.904Z,1.50
2023-04-29T10:08:17.541Z,1.60
2023-04-29T10:09:17.529Z,1.50
2023-04-29T10:10:17.549Z,1.60
2023-04-29T10:11:17.475Z,1.90
2023-04-29T10:12:17.454Z,1.70
2023-04-29T10:13:17.443Z,1.70
2023-04-29T10:14:17.414Z,1.80
2023-04-29T10:15:17.389Z,1.90
2023-04-29T10:16:17.563Z,1.60
2023-04-29T10:17:17.350Z,1.70
2023-04-29T10:18:17.322Z,1.80
2023-04-29T10:19:17.301Z,1.70
2023-04-29T10:20:17.355Z,1.50
2023-04-29T10:21:17.262Z,1.60
2023-04-29T10:22:17.233Z,1.70
2023-04-29T10:23:17.213Z,1.90
2023-04-29T10:24:17.187Z,1.90
2023-04-29T10:25:17.172Z,1.70
2023-04-29T10:26:17.188Z,1.50
2023-04-29T10:27:17.125Z,1.60
2023-04-29T10:28:17.126Z,1.60
2023-04-29T10:29:17.095Z,1.40
2023-04-29T10:30:17.061Z,1.50
2023-04-29T10:31:17.102Z,1.40
2023-04-29T10:32:17.024Z,1.50
2023-04-29T10:33:17.049Z,1.60
2023-04-29T10:34:16.985Z,1.50
2023-04-29T10:35:16.959Z,1.50
2023-04-29T10:36:16.964Z,1.50
2023-04-29T10:37:16.910Z,1.50
2023-04-29T10:38:18.944Z,1.50
2023-04-29T10:39:16.875Z,1.50
2023-04-29T10:40:16.851Z,1.40
2023-04-29T10:41:16.831Z,1.50
2023-04-29T10:42:16.810Z,1.60
2023-04-29T10:43:16.788Z,1.60
2023-04-29T10:44:16.770Z,1.80
2023-04-29T10:45:16.750Z,1.50
2023-04-29T10:46:16.765Z,1.30
2023-04-29T10:47:16.705Z,1.60
2023-04-29T10:48:16.681Z,1.60
2023-04-29T10:49:16.663Z,1.50
2023-04-29T10:50:16.645Z,1.70
2023-04-29T10:51:16.621Z,1.50
2023-04-29T10:52:16.617Z,1.80
2023-04-29T10:53:16.583Z,1.50
2023-04-29T10:54:16.605Z,1.60
2023-04-29T10:55:16.540Z,1.60
2023-04-29T10:56:16.518Z,1.70
2023-04-29T10:57:16.496Z,1.60
2023-04-29T10:58:16.477Z,1.30
2023-04-29T10:59:16.481Z,1.80
2023-04-29T11:00:16.432Z,1.50
2023-04-29T11:01:16.422Z,1.70
2023-04-29T11:02:16.392Z,1.50
2023-04-29T11:03:16.487Z,1.60
2023-04-29T11:04:16.374Z,1.60
2023-04-29T11:05:16.334Z,1.70
2023-04-29T11:06:16.317Z,1.70
2023-04-29T11:07:16.296Z,1.70
2023-04-29T11:08:16.338Z,2.00
2023-04-29T11:09:16.257Z,1.70
2023-04-29T11:10:16.220Z,1.70
2023-04-29T11:11:16.218Z,2.00
2023-04-29T11:12:16.175Z,1.90
2023-04-29T11:13:16.156Z,1.70
2023-04-29T11:14:16.140Z,2.00
2023-04-29T11:15:16.112Z,1.70
2023-04-29T11:16:16.140Z,1.90
2023-04-29T11:17:16.095Z,2.30
2023-04-29T11:18:16.066Z,2.00
2023-04-29T11:19:16.035Z,1.90
2023-04-29T11:20:16.012Z,1.70
2023-04-29T11:21:16.010Z,1.90
2023-04-29T11:22:15.961Z,1.90
2023-04-29T11:23:15.937Z,1.90
2023-04-29T11:24:15.973Z,1.90
2023-04-29T11:25:15.890Z,1.50
2023-04-29T11:26:15.872Z,1.40
2023-04-29T11:27:15.850Z,1.30
2023-04-29T11:28:15.831Z,1.30
2023-04-29T11:29:15.808Z,1.40
2023-04-29T11:30:15.791Z,1.50
2023-04-29T11:31:15.774Z,1.40
2023-04-29T11:32:15.780Z,1.80
2023-04-29T11:33:15.782Z,1.60
2023-04-29T11:34:15.705Z,1.70
2023-04-29T11:35:15.677Z,1.60
2023-04-29T11:36:15.653Z,1.40
2023-04-29T11:37:15.631Z,1.30
2023-04-29T11:38:15.609Z,1.30
2023-04-29T11:39:15.588Z,1.40
2023-04-29T11:40:15.625Z,1.40
2023-04-29T11:41:15.544Z,2.20
2023-04-29T11:42:15.527Z,1.30
2023-04-29T11:43:15.499Z,1.40
2023-04-29T11:44:15.485Z,1.20
2023-04-29T11:45:15.459Z,1.30
2023-04-29T11:46:15.526Z,1.30
2023-04-29T11:47:15.445Z,1.50
2023-04-29T11:48:15.403Z,1.40
2023-04-29T11:49:15.378Z,1.30
2023-04-29T11:50:15.351Z,1.20
2023-04-29T11:51:15.336Z,1.30
2023-04-29T11:52:15.310Z,1.20
2023-04-29T11:53:15.284Z,1.40
2023-04-29T11:54:15.273Z,1.20
2023-04-29T11:55:15.248Z,1.30
2023-04-29T11:56:15.242Z,1.20
2023-04-29T11:57:15.201Z,1.30
2023-04-29T11:58:15.181Z,1.20
2023-04-29T11:59:15.157Z,1.20
2023-04-29T12:00:15.234Z,1.30
2023-04-29T12:01:15.122Z,1.40
2023-04-29T12:02:15.178Z,1.30
2023-04-29T12:03:15.224Z,1.30
2023-04-29T12:04:15.297Z,1.30
2023-04-29T12:05:15.343Z,1.40
2023-04-29T12:06:15.010Z,1.40
2023-04-29T12:07:14.990Z,1.30
2023-04-29T12:08:14.975Z,1.40
2023-04-29T12:09:14.948Z,1.30
2023-04-29T12:10:14.986Z,1.40
2023-04-29T12:11:14.910Z,1.30
2023-04-29T12:12:14.915Z,1.60
2023-04-29T12:13:14.872Z,1.40
2023-04-29T12:14:14.845Z,1.30
2023-04-29T12:15:14.832Z,1.50
2023-04-29T12:16:14.849Z,1.40
2023-04-29T12:17:14.783Z,1.30
2023-04-29T12:18:14.768Z,1.40
2023-04-29T12:19:14.748Z,1.50
2023-04-29T12:20:14.731Z,1.40
2023-04-29T12:21:14.702Z,1.50
2023-04-29T12:22:14.681Z,1.50
2023-04-29T12:23:14.660Z,1.50
2023-04-29T12:24:14.640Z,1.70
2023-04-29T12:25:14.622Z,1.50
2023-04-29T12:26:14.596Z,1.50
2023-04-29T12:27:14.576Z,1.40
2023-04-29T12:28:14.600Z,1.50
2023-04-29T12:29:14.548Z,1.30
2023-04-29T12:30:14.542Z,1.40
2023-04-29T12:31:14.537Z,1.60
2023-04-29T12:32:14.479Z,1.70
2023-04-29T12:33:14.485Z,1.40
2023-04-29T12:34:14.433Z,1.50
2023-04-29T12:35:14.409Z,1.70
2023-04-29T12:36:14.391Z,1.60
2023-04-29T12:37:14.375Z,1.40
2023-04-29T12:38:14.349Z,1.50
2023-04-29T12:39:14.327Z,1.40
2023-04-29T12:40:14.307Z,1.60
2023-04-29T12:41:14.284Z,1.50
2023-04-29T12:42:14.266Z,1.40
2023-04-29T12:43:14.246Z,1.60
2023-04-29T12:44:14.265Z,1.70
2023-04-29T12:45:14.199Z,1.60
2023-04-29T12:46:14.210Z,1.50
2023-04-29T12:47:14.200Z,1.40
2023-04-29T12:48:25.305Z,1.60
2023-04-29T12:49:14.124Z,1.60
2023-04-29T12:50:14.100Z,1.50
2023-04-29T12:51:14.080Z,1.60
2023-04-29T12:52:14.059Z,1.70
2023-04-29T12:53:14.043Z,1.50
2023-04-29T12:54:14.030Z,1.60
2023-04-29T12:55:13.996Z,1.60
2023-04-29T12:56:13.980Z,1.30
2023-04-29T12:57:13.992Z,1.50
2023-04-29T12:58:13.934Z,1.60
2023-04-29T12:59:13.913Z,1.40
2023-04-29T13:00:13.917Z,1.40
2023-04-29T13:01:16.610Z,1.40
2023-04-29T13:02:13.903Z,1.40
2023-04-29T13:03:13.885Z,1.50
2023-04-29T13:04:13.922Z,1.30
2023-04-29T13:05:13.824Z,1.50
2023-04-29T13:06:13.775Z,1.50
2023-04-29T13:07:13.752Z,1.50
2023-04-29T13:08:13.734Z,1.30
2023-04-29T13:09:18.631Z,1.50
2023-04-29T13:10:13.696Z,1.40
2023-04-29T13:11:13.732Z,1.40
2023-04-29T13:12:13.657Z,1.20
2023-04-29T13:13:13.629Z,1.30
2023-04-29T13:14:13.667Z,1.40
2023-04-29T13:15:13.588Z,1.40
2023-04-29T13:16:13.622Z,1.50
2023-04-29T13:17:13.848Z,1.30